Time;durP1;ratioP1;P1;durP2;ratioP2;P2;SDS_P1;SDS_P2;PMS_P1;PMS_P2;Temp;Humidity;BMP_temperature;BMP_pressure;BME280_temperature;BME280_humidity;BME280_pressure;Samples;Min_cycle;Max_cycle;Signal;HPM_P1;HPM_P2
2021/11/22 03:47:28;;;;;;;42.17;23.50;;;8.20;91.40;;;;;;4854670;24;20062;-79
2021/11/22 03:49:54;;;;;;;41.58;24.45;;;8.20;91.40;;;;;;4832864;29;20229;-79
2021/11/22 03:52:20;;;;;;;42.67;25.10;;;8.20;91.10;;;;;;4811044;29;20044;-79
2021/11/22 03:54:45;;;;;;;38.30;23.55;;;8.20;91.10;;;;;;4826086;29;20061;-79
2021/11/22 03:57:11;;;;;;;43.63;24.98;;;8.20;91.20;;;;;;4831895;29;20321;-79
2021/11/22 03:59:37;;;;;;;42.28;24.75;;;8.30;91.20;;;;;;4817668;29;20422;-79
2021/11/22 04:02:03;;;;;;;42.38;24.70;;;8.20;91.00;;;;;;4868183;29;20045;-80
2021/11/22 04:04:29;;;;;;;40.75;24.17;;;8.20;91.20;;;;;;4857517;29;20060;-80
2021/11/22 04:06:55;;;;;;;37.72;23.20;;;8.20;91.20;;;;;;4867251;29;20326;-79
2021/11/22 04:09:21;;;;;;;46.15;27.27;;;8.20;91.10;;;;;;4846777;29;20033;-79
2021/11/22 04:11:48;;;;;;;42.50;24.25;;;8.30;91.50;;;;;;4849023;29;20034;-79
2021/11/22 04:14:14;;;;;;;43.72;25.38;;;8.30;91.40;;;;;;4826039;29;20337;-80
2021/11/22 04:16:39;;;;;;;43.75;26.85;;;8.30;91.10;;;;;;4829360;29;20045;-80
2021/11/22 04:19:05;;;;;;;40.33;24.73;;;8.40;91.20;;;;;;4819541;29;20076;-79
2021/11/22 04:21:31;;;;;;;41.70;24.70;;;8.30;91.00;;;;;;4851658;29;20044;-80
2021/11/22 04:23:57;;;;;;;44.90;26.98;;;8.30;90.90;;;;;;4869148;29;20041;-80
2021/11/22 04:26:23;;;;;;;40.22;25.30;;;8.20;91.10;;;;;;4841770;29;20172;-80
2021/11/22 04:28:49;;;;;;;43.70;25.27;;;8.20;91.20;;;;;;4854723;29;20037;-80
2021/11/22 04:31:15;;;;;;;44.92;25.02;;;8.20;91.60;;;;;;4863693;29;20102;-79
2021/11/22 04:33:41;;;;;;;42.95;26.02;;;8.20;91.40;;;;;;4823321;29;20225;-80
2021/11/22 04:36:09;;;;;;;42.72;25.77;;;8.20;91.40;;;;;;4815713;29;20030;-80
2021/11/22 04:38:36;;;;;;;43.88;25.60;;;8.20;91.40;;;;;;4843905;29;20030;-80
2021/11/22 04:41:02;;;;;;;46.55;27.13;;;8.20;91.40;;;;;;4857946;29;20044;-80
2021/11/22 04:43:28;;;;;;;42.75;26.80;;;8.20;91.50;;;;;;4829355;29;20045;-80
2021/11/22 04:45:54;;;;;;;43.38;26.65;;;8.20;91.50;;;;;;4847758;29;20049;-80
2021/11/22 04:48:20;;;;;;;44.97;26.88;;;8.20;91.50;;;;;;4825593;29;20038;-80
2021/11/22 04:50:46;;;;;;;44.35;26.48;;;8.20;91.50;;;;;;4831977;29;20038;-79
2021/11/22 04:53:12;;;;;;;44.78;27.52;;;8.20;91.50;;;;;;4841108;29;20055;-79
2021/11/22 04:55:38;;;;;;;41.55;25.98;;;8.10;91.50;;;;;;4840720;29;20046;-79
2021/11/22 04:58:05;;;;;;;50.17;27.83;;;8.10;91.70;;;;;;4853363;29;20038;-79
2021/11/22 05:00:32;;;;;;;49.03;29.50;;;8.10;91.60;;;;;;4847807;29;20272;-79
2021/11/22 05:02:57;;;;;;;47.20;30.23;;;8.10;91.70;;;;;;4830872;29;20034;-80
2021/11/22 05:05:23;;;;;;;47.15;27.42;;;8.10;91.70;;;;;;4840597;29;20187;-80
2021/11/22 05:07:50;;;;;;;47.55;28.42;;;8.10;91.70;;;;;;4855795;29;20068;-79
2021/11/22 05:10:17;;;;;;;46.60;27.42;;;8.20;91.60;;;;;;4831628;29;20306;-80
2021/11/22 05:12:44;;;;;;;45.75;26.95;;;8.20;91.60;;;;;;4852978;29;20113;-80
2021/11/22 05:15:10;;;;;;;53.13;29.30;;;8.20;91.60;;;;;;4852985;29;20038;-79
2021/11/22 05:17:36;;;;;;;45.20;29.08;;;8.20;91.60;;;;;;4849184;29;20233;-80
2021/11/22 05:20:04;;;;;;;50.53;29.25;;;8.20;91.60;;;;;;4831222;29;20049;-79
2021/11/22 05:22:30;;;;;;;45.97;28.33;;;8.20;91.60;;;;;;4836646;29;20022;-79
2021/11/22 05:24:57;;;;;;;50.65;29.70;;;8.30;91.60;;;;;;4834368;29;20034;-79
2021/11/22 05:27:27;;;;;;;48.65;28.73;;;8.20;91.70;;;;;;4819930;29;20031;-80
2021/11/22 05:29:53;;;;;;;47.38;28.55;;;8.30;91.80;;;;;;4850221;29;20034;-80
2021/11/22 05:32:20;;;;;;;50.58;28.80;;;8.30;91.60;;;;;;4843007;29;20065;-79
2021/11/22 05:34:52;;;;;;;48.83;29.63;;;8.30;91.70;;;;;;4846570;29;20038;-80
2021/11/22 05:37:18;;;;;;;50.65;30.33;;;8.30;91.70;;;;;;4834146;29;20060;-80
2021/11/22 05:39:45;;;;;;;51.13;30.20;;;8.30;91.70;;;;;;4843465;29;20050;-79
2021/11/22 05:42:11;;;;;;;52.05;29.55;;;8.30;91.70;;;;;;4849550;29;20356;-79
2021/11/22 05:44:37;;;;;;;48.20;29.55;;;8.30;91.70;;;;;;4849254;29;20027;-79
2021/11/22 05:47:05;;;;;;;49.33;30.20;;;8.30;91.50;;;;;;4849154;29;20054;-79
2021/11/22 05:49:33;;;;;;;52.92;30.50;;;8.30;91.60;;;;;;4855536;29;20109;-79
2021/11/22 05:52:00;;;;;;;52.63;30.60;;;8.20;91.60;;;;;;4819063;29;20045;-79
2021/11/22 05:54:26;;;;;;;;;;;8.20;91.80;;;;;;4831160;29;20329;-80
2021/11/22 05:56:52;;;;;;;50.50;30.27;;;8.20;91.70;;;;;;4855297;29;19953;-79
2021/11/22 05:59:19;;;;;;;45.53;27.67;;;8.20;91.70;;;;;;4832550;29;20042;-79
2021/11/22 06:01:45;;;;;;;49.67;28.58;;;8.20;91.80;;;;;;4845715;29;20040;-79
2021/11/22 06:04:11;;;;;;;49.47;28.80;;;8.20;91.80;;;;;;4851672;29;20076;-80
2021/11/22 06:06:36;;;;;;;49.03;29.40;;;8.20;91.80;;;;;;4839910;29;20073;-80
2021/11/22 06:09:03;;;;;;;47.10;28.58;;;8.20;91.90;;;;;;4830499;29;20040;-80
2021/11/22 06:11:29;;;;;;;51.45;28.80;;;8.30;91.80;;;;;;4845798;29;20030;-79
2021/11/22 06:13:54;;;;;;;47.67;28.08;;;8.30;91.70;;;;;;4845724;29;20042;-80
2021/11/22 06:16:20;;;;;;;49.45;29.70;;;8.30;91.70;;;;;;4839776;29;20398;-80
2021/11/22 06:18:46;;;;;;;44.80;28.30;;;8.30;91.70;;;;;;4854538;29;20034;-80
2021/11/22 06:21:12;;;;;;;50.17;30.45;;;8.30;91.70;;;;;;4834114;29;20237;-80
2021/11/22 06:23:38;;;;;;;51.50;28.77;;;8.30;91.70;;;;;;4854442;29;20030;-80
2021/11/22 06:26:04;;;;;;;55.83;29.02;;;8.40;91.60;;;;;;4839487;29;20105;-80
2021/11/22 06:28:30;;;;;;;50.92;30.17;;;8.40;91.50;;;;;;4833978;29;20757;-80
2021/11/22 06:30:56;;;;;;;48.00;28.42;;;8.40;91.50;;;;;;4838363;29;20053;-80
2021/11/22 06:33:22;;;;;;;51.92;30.65;;;8.40;91.60;;;;;;4835433;29;20271;-80
2021/11/22 06:35:48;;;;;;;53.35;29.92;;;8.40;91.60;;;;;;4833167;29;20034;-80
2021/11/22 06:38:15;;;;;;;51.10;28.40;;;8.40;91.50;;;;;;4852226;29;20118;-80
2021/11/22 06:40:41;;;;;;;46.33;27.75;;;8.40;91.50;;;;;;4839540;29;20034;-80
2021/11/22 06:43:07;;;;;;;49.90;28.40;;;8.40;91.50;;;;;;4848309;29;20042;-81
2021/11/22 06:45:33;;;;;;;50.45;29.20;;;8.40;91.50;;;;;;4820358;29;20034;-80
2021/11/22 06:47:59;;;;;;;47.85;28.73;;;8.40;91.50;;;;;;4819176;29;20087;-80
2021/11/22 06:50:25;;;;;;;50.20;27.83;;;8.30;91.40;;;;;;4852601;29;20042;-80
2021/11/22 06:52:51;;;;;;;46.40;28.23;;;8.40;91.40;;;;;;4839115;29;20042;-80
2021/11/22 06:55:19;;;;;;;50.75;27.88;;;8.40;91.50;;;;;;4832582;29;20030;-80
2021/11/22 06:57:45;;;;;;;46.67;27.92;;;8.40;91.40;;;;;;4841357;29;20034;-80
2021/11/22 07:00:14;;;;;;;48.28;29.38;;;8.40;91.50;;;;;;4833309;29;20230;-81
2021/11/22 07:02:40;;;;;;;49.10;28.42;;;8.40;91.50;;;;;;4847617;29;20034;-80
2021/11/22 07:05:07;;;;;;;44.93;28.10;;;8.40;91.50;;;;;;4848852;29;20030;-80
2021/11/22 07:07:34;;;;;;;49.95;26.42;;;8.50;91.40;;;;;;4825402;29;20271;-80
2021/11/22 07:10:00;;;;;;;44.03;26.70;;;8.50;91.20;;;;;;4848970;29;20038;-80
2021/11/22 07:12:26;;;;;;;46.45;27.50;;;8.50;91.10;;;;;;4829189;29;20030;-80
2021/11/22 07:14:53;;;;;;;45.53;25.50;;;8.50;91.20;;;;;;4832860;29;20037;-80
2021/11/22 07:17:19;;;;;;;49.72;27.38;;;8.50;91.10;;;;;;4830804;29;20034;-79
2021/11/22 07:19:45;;;;;;;43.33;26.15;;;8.50;91.10;;;;;;4832321;29;20034;-79
2021/11/22 07:22:13;;;;;;;45.15;26.55;;;8.50;91.10;;;;;;4833937;29;20039;-79
2021/11/22 07:24:41;;;;;;;51.85;28.83;;;8.60;91.20;;;;;;4840354;29;20034;-80
2021/11/22 07:27:09;;;;;;;46.72;26.85;;;8.50;91.10;;;;;;4834937;29;20381;-80
2021/11/22 07:29:35;;;;;;;42.83;25.02;;;8.50;91.10;;;;;;4812758;29;20054;-80
2021/11/22 07:32:02;;;;;;;44.28;26.67;;;8.60;91.10;;;;;;4820362;29;20395;-80
2021/11/22 07:34:27;;;;;;;44.97;26.27;;;8.60;90.90;;;;;;4819345;29;20346;-80
2021/11/22 07:36:53;;;;;;;43.30;25.60;;;8.60;90.90;;;;;;4834477;29;20047;-80
2021/11/22 07:39:19;;;;;;;44.92;26.65;;;8.60;90.70;;;;;;4820206;29;20054;-80
2021/11/22 07:41:45;;;;;;;43.95;26.05;;;8.70;90.90;;;;;;4832196;29;20038;-80
2021/11/22 07:44:12;;;;;;;47.35;26.67;;;8.70;90.80;;;;;;4831388;29;20062;-80
2021/11/22 07:46:38;;;;;;;49.70;28.13;;;8.70;90.90;;;;;;4817046;29;20059;-80
2021/11/22 07:49:03;;;;;;;48.40;27.65;;;8.70;90.80;;;;;;4848689;29;20041;-80
2021/11/22 07:51:29;;;;;;;47.50;28.58;;;8.70;90.90;;;;;;4835751;29;20283;-80
2021/11/22 07:53:55;;;;;;;51.60;26.55;;;8.70;90.80;;;;;;4834214;29;20038;-80
2021/11/22 07:56:21;;;;;;;50.42;27.02;;;8.70;90.90;;;;;;4849497;29;20225;-79
2021/11/22 07:58:47;;;;;;;48.13;26.15;;;8.70;91.00;;;;;;4847480;29;20090;-80
2021/11/22 08:01:13;;;;;;;46.35;25.20;;;8.70;90.90;;;;;;4830728;29;20035;-80
2021/11/22 08:03:39;;;;;;;48.03;26.10;;;8.70;91.00;;;;;;4802906;29;20030;-80
2021/11/22 08:06:05;;;;;;;45.97;26.73;;;8.70;91.00;;;;;;4810121;29;20071;-80
2021/11/22 08:08:32;;;;;;;45.03;26.13;;;8.70;90.90;;;;;;4847548;29;20038;-80
2021/11/22 08:13:31;;;;;;;47.58;26.13;;;8.70;91.30;;;;;;4836219;29;20039;-79
2021/11/22 08:16:01;;;;;;;47.50;25.70;;;8.70;91.20;;;;;;4828951;29;20046;-81
2021/11/22 08:18:27;;;;;;;49.88;28.38;;;8.70;91.30;;;;;;4815865;29;20394;-79
2021/11/22 08:20:54;;;;;;;42.60;26.40;;;8.70;91.30;;;;;;4828461;29;20041;-79
2021/11/22 08:23:19;;;;;;;51.40;28.92;;;8.80;91.30;;;;;;4835492;29;20030;-80
2021/11/22 08:25:45;;;;;;;55.33;29.00;;;8.80;91.30;;;;;;4819731;29;20389;-80
2021/11/22 08:28:11;;;;;;;48.90;28.63;;;8.80;91.40;;;;;;4852024;29;20065;-80
2021/11/22 08:30:38;;;;;;;52.35;28.13;;;8.80;91.30;;;;;;4834914;29;20039;-80
2021/11/22 08:33:04;;;;;;;46.63;27.48;;;8.80;91.40;;;;;;4834458;29;20068;-80
2021/11/22 08:35:33;;;;;;;50.08;28.85;;;8.90;91.40;;;;;;4846794;29;20042;-80
2021/11/22 08:38:00;;;;;;;53.63;30.17;;;8.90;91.40;;;;;;4867618;29;20057;-80
2021/11/22 08:40:27;;;;;;;58.85;30.88;;;8.90;91.40;;;;;;4852319;29;20267;-80
2021/11/22 08:42:56;;;;;;;51.67;30.50;;;8.80;91.50;;;;;;4840368;29;20025;-80
2021/11/22 08:45:23;;;;;;;56.80;30.92;;;8.80;91.60;;;;;;4843455;29;20042;-80
2021/11/22 08:47:50;;;;;;;48.95;29.00;;;8.90;91.70;;;;;;4849702;29;20238;-80
2021/11/22 08:50:18;;;;;;;55.13;30.63;;;8.90;91.60;;;;;;4829332;29;20071;-80
2021/11/22 08:52:44;;;;;;;51.65;30.73;;;8.90;91.60;;;;;;4834432;29;20098;-80
2021/11/22 08:55:12;;;;;;;54.33;31.15;;;8.90;91.60;;;;;;4834429;29;20030;-80
2021/11/22 08:57:39;;;;;;;55.97;30.23;;;8.90;91.50;;;;;;4833497;29;20060;-79
2021/11/22 09:00:14;;;;;;;53.75;31.83;;;9.00;91.50;;;;;;4833987;29;20109;-81
2021/11/22 09:02:40;;;;;;;53.13;30.95;;;9.00;91.40;;;;;;4849650;29;20026;-80
2021/11/22 09:05:06;;;;;;;59.70;31.17;;;9.10;91.40;;;;;;4849290;29;20019;-81
2021/11/22 09:07:32;;;;;;;59.55;31.02;;;9.10;91.40;;;;;;4839654;29;20273;-80
2021/11/22 09:09:58;;;;;;;54.92;29.48;;;9.00;91.50;;;;;;4834213;29;20034;-80
2021/11/22 09:12:24;;;;;;;52.88;30.58;;;9.00;91.60;;;;;;4849354;29;20226;-80
2021/11/22 09:14:50;;;;;;;50.40;30.40;;;8.90;91.80;;;;;;4832796;29;20037;-80
2021/11/22 09:17:17;;;;;;;52.70;30.52;;;9.00;91.90;;;;;;4833279;29;20026;-80
2021/11/22 09:19:44;;;;;;;52.20;30.48;;;8.90;91.80;;;;;;4846148;29;20037;-80
2021/11/22 09:22:11;;;;;;;54.63;31.13;;;8.90;91.90;;;;;;4833954;29;20787;-81
2021/11/22 09:24:39;;;;;;;57.47;33.10;;;9.00;92.00;;;;;;4831707;29;20039;-81
2021/11/22 09:27:04;;;;;;;;;;;9.10;92.00;;;;;;4858792;29;20046;-80
2021/11/22 09:29:30;;;;;;;53.07;30.77;;;9.10;92.00;;;;;;4850059;29;19925;-81
2021/11/22 09:31:56;;;;;;;55.30;31.80;;;9.10;91.90;;;;;;4817400;29;20237;-80
2021/11/22 09:34:22;;;;;;;53.92;31.08;;;9.00;92.00;;;;;;4836883;29;20117;-80
2021/11/22 09:36:48;;;;;;;60.10;32.75;;;9.00;92.20;;;;;;4851237;29;20101;-80
2021/11/22 09:39:17;;;;;;;54.83;31.77;;;9.00;92.20;;;;;;4823023;29;20116;-80
2021/11/22 09:41:46;;;;;;;51.92;30.13;;;9.10;92.20;;;;;;4848411;29;20102;-80
2021/11/22 09:44:11;;;;;;;59.80;31.92;;;9.10;92.20;;;;;;4847074;29;20267;-81
2021/11/22 09:46:37;;;;;;;58.28;32.25;;;9.00;92.30;;;;;;4840384;29;20125;-80
2021/11/22 09:49:05;;;;;;;58.60;33.88;;;8.90;92.40;;;;;;4828008;29;20117;-80
2021/11/22 09:51:31;;;;;;;;;;;8.90;92.60;;;;;;4852399;29;20042;-80
2021/11/22 09:53:57;;;;;;;58.90;32.77;;;8.90;92.70;;;;;;4848441;29;19908;-80
2021/11/22 09:56:24;;;;;;;58.20;32.50;;;8.90;92.70;;;;;;4840513;29;20034;-80
2021/11/22 09:58:52;;;;;;;58.53;33.22;;;8.90;92.80;;;;;;4822419;29;20034;-80
2021/11/22 10:01:19;;;;;;;62.13;32.47;;;9.00;92.70;;;;;;4833015;29;20050;-80
2021/11/22 10:04:08;;;;;;;59.17;32.30;;;8.90;92.80;;;;;;4834612;29;20077;-81
2021/11/22 10:06:49;;;;;;;61.80;33.67;;;9.10;92.70;;;;;;4840662;29;20903;-81
2021/11/22 10:09:36;;;;;;;63.25;33.97;;;9.10;92.60;;;;;;4865656;29;20411;-81
2021/11/22 10:12:01;;;;;;;;;;;9.10;92.80;;;;;;4835592;29;20044;-81
2021/11/22 10:14:46;;;;;;;60.67;33.67;;;9.20;92.40;;;;;;4839832;29;19908;-81
2021/11/22 10:17:22;;;;;;;68.78;34.03;;;9.20;92.40;;;;;;4842733;29;21098;-80
2021/11/22 10:23:03;;;;;;;53.25;31.42;;;9.20;92.20;;;;;;4838624;29;20111;-81
2021/11/22 10:25:56;;;;;;;54.45;31.17;;;9.20;92.10;;;;;;4840664;29;20102;-81
2021/11/22 10:28:25;;;;;;;54.38;31.38;;;9.30;92.00;;;;;;4798121;29;20221;-81
2021/11/22 10:30:58;;;;;;;55.65;31.45;;;9.30;92.10;;;;;;4814133;29;20051;-81
2021/11/22 10:33:26;;;;;;;52.40;31.13;;;9.30;92.10;;;;;;4783577;29;20050;-81
2021/11/22 10:35:56;;;;;;;48.58;29.48;;;9.30;91.90;;;;;;4800599;29;20046;-80
2021/11/22 10:38:27;;;;;;;53.38;30.65;;;9.30;92.00;;;;;;4816081;29;20105;-80
2021/11/22 10:40:57;;;;;;;51.30;31.40;;;9.30;91.90;;;;;;4799766;29;20095;-81
2021/11/22 10:43:30;;;;;;;50.83;28.80;;;9.40;91.90;;;;;;4785074;29;20027;-81
2021/11/22 10:45:56;;;;;;;47.78;28.30;;;9.40;91.80;;;;;;4799329;29;20194;-81
2021/11/22 10:48:27;;;;;;;51.15;30.40;;;9.40;91.70;;;;;;4798380;29;20362;-81
2021/11/22 10:51:01;;;;;;;55.80;30.15;;;9.40;91.80;;;;;;4796908;29;20046;-81
2021/11/22 10:53:38;;;;;;;51.60;28.90;;;9.50;91.80;;;;;;4798600;29;20151;-81
2021/11/22 10:56:06;;;;;;;46.50;28.05;;;9.40;91.40;;;;;;4811804;29;20045;-81
2021/11/22 10:58:38;;;;;;;54.25;29.38;;;9.50;91.50;;;;;;4798326;29;20082;-81
2021/11/22 11:01:32;;;;;;;47.10;27.35;;;9.50;91.50;;;;;;4788481;29;20042;-81
2021/11/22 11:04:22;;;;;;;50.38;28.30;;;9.50;91.30;;;;;;4760607;30;20043;-81
2021/11/22 11:07:02;;;;;;;44.00;27.42;;;9.50;91.50;;;;;;4794127;29;20039;-81
2021/11/22 11:09:33;;;;;;;45.88;28.17;;;9.50;91.20;;;;;;4780276;29;20167;-81
2021/11/22 11:12:10;;;;;;;54.38;27.45;;;9.50;91.20;;;;;;4791829;29;20031;-81
2021/11/22 11:14:45;;;;;;;51.13;28.92;;;9.60;91.10;;;;;;4798633;29;20059;-81
2021/11/22 11:17:31;;;;;;;43.20;26.92;;;9.50;91.30;;;;;;4794414;29;20043;-81
2021/11/22 11:20:00;;;;;;;47.40;28.60;;;9.60;91.10;;;;;;4792985;29;20086;-81
2021/11/22 11:22:29;;;;;;;49.33;27.63;;;9.50;91.30;;;;;;4779525;30;20086;-81
2021/11/22 11:24:57;;;;;;;47.40;27.10;;;9.50;91.20;;;;;;4798062;29;20035;-81
2021/11/22 11:27:23;;;;;;;51.97;26.98;;;9.50;91.30;;;;;;4792809;29;20362;-81
2021/11/22 11:29:50;;;;;;;44.25;25.90;;;9.50;91.40;;;;;;4778302;29;20454;-81
2021/11/22 11:32:16;;;;;;;44.83;26.70;;;9.60;91.50;;;;;;4794896;29;20047;-81
2021/11/22 11:34:49;;;;;;;47.20;25.75;;;9.70;91.20;;;;;;4794004;29;20067;-81
2021/11/22 11:37:51;;;;;;;50.53;27.30;;;9.70;91.30;;;;;;4790854;29;20063;-81
2021/11/22 11:40:25;;;;;;;42.17;26.05;;;9.60;91.10;;;;;;4806429;29;20117;-81
2021/11/22 11:43:29;;;;;;;53.28;26.33;;;9.70;91.30;;;;;;4848104;29;20340;-81
2021/11/22 11:46:14;;;;;;;42.97;25.42;;;9.70;91.20;;;;;;4845273;29;20054;-81
2021/11/22 11:49:04;;;;;;;46.03;26.92;;;9.80;91.20;;;;;;4844203;29;20038;-81
2021/11/22 11:51:38;;;;;;;46.08;25.38;;;9.80;91.20;;;;;;4845118;29;20592;-81
2021/11/22 11:54:07;;;;;;;41.20;25.05;;;9.90;91.30;;;;;;4844756;29;20042;-81
2021/11/22 11:56:47;;;;;;;45.80;25.17;;;9.90;91.00;;;;;;4852978;29;20109;-81
2021/11/22 11:59:25;;;;;;;49.17;25.92;;;9.80;90.90;;;;;;4846644;29;20084;-81
2021/11/22 12:02:04;;;;;;;44.28;26.45;;;9.80;91.10;;;;;;4831500;29;20337;-81
2021/11/22 12:05:00;;;;;;;44.38;25.13;;;9.80;91.00;;;;;;4851840;29;20082;-81
2021/11/22 12:07:26;;;;;;;46.85;26.25;;;9.80;91.10;;;;;;4848842;29;20097;-81
2021/11/22 12:10:09;;;;;;;48.08;26.20;;;9.80;91.10;;;;;;4831412;29;20049;-80
2021/11/22 12:12:50;;;;;;;44.97;25.95;;;9.80;91.20;;;;;;4864083;29;20331;-81
2021/11/22 12:15:26;;;;;;;47.60;25.73;;;9.80;91.20;;;;;;4850273;29;20029;-81
2021/11/22 12:17:53;;;;;;;52.43;27.17;;;9.80;91.20;;;;;;4849558;29;20040;-81
2021/11/22 12:20:23;;;;;;;42.88;25.23;;;9.80;91.30;;;;;;4852687;29;20061;-80
2021/11/22 12:22:58;;;;;;;50.38;27.27;;;9.80;91.40;;;;;;4844961;29;20532;-80
2021/11/22 12:25:43;;;;;;;53.58;27.98;;;9.80;91.40;;;;;;4832851;29;20042;-81
2021/11/22 12:28:24;;;;;;;44.30;26.33;;;9.90;91.50;;;;;;4833153;29;20030;-81
2021/11/22 12:30:55;;;;;;;45.63;26.40;;;9.80;91.30;;;;;;4831799;29;20038;-81
2021/11/22 12:33:21;;;;;;;48.95;26.58;;;9.80;91.60;;;;;;4831580;29;20038;-81
2021/11/22 12:35:53;;;;;;;45.35;26.23;;;9.80;91.60;;;;;;4835566;29;20037;-80
2021/11/22 12:38:44;;;;;;;44.58;25.40;;;9.80;91.80;;;;;;4832241;29;20030;-80
2021/11/22 12:41:24;;;;;;;48.70;28.25;;;9.80;91.90;;;;;;4848665;29;20276;-81
2021/11/22 12:43:54;;;;;;;49.25;27.58;;;9.80;92.00;;;;;;4839181;29;20018;-81
2021/11/22 12:46:23;;;;;;;49.78;27.50;;;9.80;92.30;;;;;;4852030;29;20100;-81
2021/11/22 12:48:56;;;;;;;49.55;27.95;;;9.70;92.60;;;;;;4834813;29;20026;-81
2021/11/22 12:51:24;;;;;;;49.38;27.45;;;9.80;92.70;;;;;;4855391;29;20049;-81
2021/11/22 12:54:02;;;;;;;52.80;28.05;;;9.80;92.80;;;;;;4837230;29;20101;-80
2021/11/22 12:56:33;;;;;;;50.30;27.75;;;9.80;93.10;;;;;;4849939;29;20026;-81
2021/11/22 12:59:18;;;;;;;47.65;27.77;;;9.80;93.50;;;;;;4834828;29;20042;-80
2021/11/22 13:01:47;;;;;;;47.50;27.38;;;9.70;93.50;;;;;;4862119;29;20349;-80
2021/11/22 13:04:42;;;;;;;51.72;28.75;;;9.80;93.60;;;;;;4833981;29;20029;-80
2021/11/22 13:07:33;;;;;;;46.92;27.63;;;9.80;93.80;;;;;;4831358;29;20257;-80
2021/11/22 13:10:00;;;;;;;47.13;27.42;;;9.80;94.10;;;;;;4867248;29;20104;-80
2021/11/22 13:12:38;;;;;;;48.03;28.13;;;9.80;94.00;;;;;;4867156;29;20061;-80
2021/11/22 13:15:13;;;;;;;54.15;28.70;;;9.90;94.20;;;;;;4866621;29;20029;-80
2021/11/22 13:17:40;;;;;;;50.95;29.90;;;9.80;94.40;;;;;;4834651;29;20038;-81
2021/11/22 13:20:06;;;;;;;50.40;27.95;;;9.80;94.50;;;;;;4866442;29;20048;-80
2021/11/22 13:22:32;;;;;;;52.67;29.25;;;9.80;94.70;;;;;;4834944;29;20341;-80
2021/11/22 13:24:58;;;;;;;51.22;28.35;;;9.70;94.90;;;;;;4823555;29;20034;-80
2021/11/22 13:27:23;;;;;;;50.40;28.55;;;9.80;95.20;;;;;;4838420;29;20122;-80
2021/11/22 13:29:49;;;;;;;52.63;29.33;;;9.80;95.40;;;;;;4789001;29;20046;-80
2021/11/22 13:32:15;;;;;;;49.92;29.08;;;9.80;95.60;;;;;;4839803;29;20129;-80
2021/11/22 13:34:40;;;;;;;47.53;28.70;;;9.80;95.50;;;;;;4842941;29;20038;-81
2021/11/22 13:37:09;;;;;;;47.78;27.25;;;9.70;95.60;;;;;;4836087;29;20129;-81
2021/11/22 13:39:38;;;;;;;50.53;28.20;;;9.70;95.80;;;;;;4858133;29;20046;-81
2021/11/22 13:42:08;;;;;;;47.40;27.67;;;9.60;96.00;;;;;;4860555;29;20313;-81
2021/11/22 13:44:40;;;;;;;48.10;27.85;;;9.60;96.20;;;;;;4846155;29;20037;-81
2021/11/22 13:47:14;;;;;;;55.42;28.88;;;9.60;96.40;;;;;;4850624;29;20353;-80
2021/11/22 13:49:40;;;;;;;49.90;27.85;;;9.60;96.50;;;;;;4861650;29;20278;-81
2021/11/22 13:52:06;;;;;;;55.22;30.08;;;9.50;97.20;;;;;;4849627;29;20203;-81
2021/11/22 13:54:33;;;;;;;49.58;29.13;;;9.50;96.90;;;;;;4836964;29;20050;-81
2021/11/22 13:57:03;;;;;;;56.72;30.08;;;9.40;97.40;;;;;;4819333;29;20034;-81
2021/11/22 13:59:39;;;;;;;45.33;27.30;;;9.40;97.60;;;;;;4848715;29;20105;-81
2021/11/22 14:02:17;;;;;;;49.53;28.30;;;9.40;97.70;;;;;;4835064;29;20061;-80
2021/11/22 14:04:48;;;;;;;56.70;29.08;;;9.40;97.90;;;;;;4848606;29;20041;-81
2021/11/22 14:07:14;;;;;;;46.85;27.98;;;9.40;97.90;;;;;;4829781;29;20378;-81
2021/11/22 14:09:41;;;;;;;51.10;29.13;;;9.40;98.00;;;;;;4850090;29;20398;-81
2021/11/22 14:12:08;;;;;;;54.10;28.07;;;9.40;98.20;;;;;;4848380;29;20074;-81
2021/11/22 14:14:42;;;;;;;48.63;28.50;;;9.30;98.30;;;;;;4848131;29;20117;-81
2021/11/22 14:17:17;;;;;;;53.33;29.40;;;9.40;98.60;;;;;;4833234;29;20070;-80
2021/11/22 14:19:42;;;;;;;53.03;28.95;;;9.40;98.50;;;;;;4847016;29;20030;-81
2021/11/22 14:22:13;;;;;;;56.95;29.88;;;9.40;98.60;;;;;;4815418;29;20084;-80
2021/11/22 14:24:56;;;;;;;51.40;27.83;;;9.30;98.70;;;;;;4840439;29;20045;-81
2021/11/22 14:27:25;;;;;;;50.30;27.40;;;9.30;99.00;;;;;;4832084;29;20045;-81
2021/11/22 14:30:03;;;;;;;59.83;31.95;;;9.20;99.20;;;;;;4848407;29;20037;-81
2021/11/22 14:32:38;;;;;;;50.63;29.48;;;9.10;99.50;;;;;;4845928;29;20078;-81
2021/11/22 14:35:19;;;;;;;50.72;28.92;;;9.10;99.60;;;;;;4847822;29;20349;-81
2021/11/22 14:38:05;;;;;;;54.13;27.75;;;9.10;99.50;;;;;;4841284;29;20031;-82
2021/11/22 14:40:31;;;;;;;;;;;9.10;99.90;;;;;;4839830;29;20038;-82
2021/11/22 14:43:23;;;;;;;46.17;26.47;;;9.00;99.90;;;;;;4831741;29;20204;-81
2021/11/22 14:45:52;;;;;;;45.05;25.23;;;9.10;99.90;;;;;;4833300;29;20341;-81
2021/11/22 14:48:17;;;;;;;50.63;27.05;;;9.00;99.90;;;;;;4841528;29;20113;-81
2021/11/22 14:50:43;;;;;;;45.45;25.63;;;9.00;99.90;;;;;;4838660;29;20030;-81
2021/11/22 14:53:14;;;;;;;50.45;27.58;;;9.00;99.90;;;;;;4850045;29;20042;-81
2021/11/22 14:55:41;;;;;;;47.28;26.70;;;9.00;99.90;;;;;;4853459;29;20041;-80
2021/11/22 14:58:07;;;;;;;48.67;26.83;;;8.90;99.90;;;;;;4838460;29;20038;-81
2021/11/22 15:00:36;;;;;;;53.93;29.53;;;9.00;99.90;;;;;;4816114;29;20405;-80
2021/11/22 15:03:28;;;;;;;49.25;28.10;;;9.00;99.90;;;;;;4832787;29;20330;-81
2021/11/22 15:05:57;;;;;;;61.38;29.85;;;8.90;99.90;;;;;;4826614;29;20030;-81
2021/11/22 15:08:28;;;;;;;51.13;29.50;;;8.80;99.90;;;;;;4849934;29;20163;-81
2021/11/22 15:11:00;;;;;;;52.55;29.23;;;8.90;99.90;;;;;;4842132;29;20038;-81
2021/11/22 15:13:33;;;;;;;54.40;28.35;;;8.80;99.90;;;;;;4850724;29;20083;-81
2021/11/22 15:15:59;;;;;;;50.08;28.65;;;8.80;99.90;;;;;;4847263;29;20329;-81
2021/11/22 15:18:24;;;;;;;49.72;28.80;;;8.80;99.90;;;;;;4818463;29;20041;-81
2021/11/22 15:20:50;;;;;;;50.28;28.10;;;8.80;99.90;;;;;;4853429;29;20171;-81
2021/11/22 15:23:16;;;;;;;49.17;29.63;;;8.90;99.90;;;;;;4834659;29;20034;-80
2021/11/22 15:25:42;;;;;;;53.63;29.23;;;8.90;99.90;;;;;;4839834;29;20023;-82
2021/11/22 15:28:11;;;;;;;50.95;28.30;;;8.90;99.90;;;;;;4814412;29;20084;-81
2021/11/22 15:30:40;;;;;;;50.00;28.20;;;9.00;99.90;;;;;;4825561;29;20085;-81
2021/11/22 15:33:06;;;;;;;56.22;28.33;;;9.00;99.90;;;;;;4834160;29;20038;-80
2021/11/22 15:35:32;;;;;;;58.03;29.83;;;9.00;99.90;;;;;;4847161;29;20069;-81
2021/11/22 15:37:58;;;;;;;51.40;28.95;;;9.00;99.90;;;;;;4817665;29;20066;-81
2021/11/22 15:40:23;;;;;;;55.25;29.40;;;9.00;99.90;;;;;;4835646;29;20333;-81
2021/11/22 15:42:52;;;;;;;48.53;26.45;;;9.10;99.90;;;;;;4834257;29;20167;-80
2021/11/22 15:45:18;;;;;;;54.05;29.30;;;9.00;99.90;;;;;;4835124;29;20027;-80
2021/11/22 15:47:45;;;;;;;48.08;27.15;;;9.10;99.90;;;;;;4832164;29;20292;-81
2021/11/22 15:50:15;;;;;;;52.47;28.10;;;9.00;99.90;;;;;;4839091;29;20056;-80
2021/11/22 15:52:41;;;;;;;52.95;29.73;;;9.00;99.90;;;;;;4858648;29;20031;-80
2021/11/22 15:55:12;;;;;;;53.92;28.48;;;9.00;99.90;;;;;;4849194;29;20167;-79
2021/11/22 15:57:38;;;;;;;49.20;27.70;;;9.00;99.90;;;;;;4842962;29;20333;-80
2021/11/22 16:00:07;;;;;;;47.55;27.23;;;9.00;99.90;;;;;;4832513;29;20042;-80
2021/11/22 16:02:33;;;;;;;47.20;27.13;;;9.00;99.90;;;;;;4834199;29;20077;-80
2021/11/22 16:04:59;;;;;;;49.13;29.13;;;9.00;99.90;;;;;;4842792;29;20035;-80
2021/11/22 16:07:25;;;;;;;54.70;29.13;;;9.00;99.90;;;;;;4816129;29;20041;-80
2021/11/22 16:09:51;;;;;;;61.63;32.08;;;9.00;99.90;;;;;;4816052;29;20125;-80
2021/11/22 16:12:17;;;;;;;50.45;29.77;;;9.00;99.90;;;;;;4827969;29;20113;-80
2021/11/22 16:14:44;;;;;;;52.53;29.80;;;9.00;99.90;;;;;;4837102;29;20101;-80
2021/11/22 16:17:12;;;;;;;55.05;29.67;;;9.00;99.90;;;;;;4829146;29;20042;-80
2021/11/22 16:19:38;;;;;;;46.70;28.42;;;9.00;99.90;;;;;;4835557;29;20054;-80
2021/11/22 16:22:04;;;;;;;49.38;28.02;;;8.90;99.90;;;;;;4846247;29;20241;-80
2021/11/22 16:24:30;;;;;;;50.05;29.23;;;9.00;99.90;;;;;;4847606;29;20035;-80
2021/11/22 16:27:00;;;;;;;54.95;29.70;;;8.90;99.90;;;;;;4835293;29;20045;-81
2021/11/22 16:29:42;;;;;;;53.80;30.42;;;8.90;99.90;;;;;;4834976;29;20229;-80
2021/11/22 16:32:08;;;;;;;54.88;29.95;;;9.00;99.90;;;;;;4832866;29;20046;-80
2021/11/22 16:34:35;;;;;;;61.55;33.90;;;8.90;99.90;;;;;;4837023;29;20049;-80
2021/11/22 16:37:04;;;;;;;56.55;31.90;;;8.90;99.90;;;;;;4838407;29;20119;-80
2021/11/22 16:39:30;;;;;;;55.92;31.88;;;8.90;99.90;;;;;;4855135;29;20095;-80
2021/11/22 16:41:57;;;;;;;54.83;32.92;;;8.90;99.90;;;;;;4819398;29;20042;-80